Time,TemperatureF,DewpointF,PressureIn,WindDirection,WindDirectionDegrees,WindSpeedMPH,WindSpeedGustMPH,Humidity,HourlyPrecipIn,Conditions,Clouds,dailyrainin,SoftwareType,DateUTC
2013-08-30 00:00:00,73.3,73.3,30.01,NE,46,3.0,6.0,100,0.00,,---,0.00,VWS V14.00,2013-08-30 04:00:00,
2013-08-30 00:01:00,73.2,73.2,30.01,NE,48,3.0,6.0,100,0.00,,---,0.00,VWS V14.00,2013-08-30 04:01:00,
2013-08-30 00:06:00,73.1,73.1,30.01,NNE,31,6.0,7.0,100,0.00,,---,0.00,VWS V14.00,2013-08-30 04:06:00,
2013-08-30 00:11:00,73.1,73.1,30.01,NNE,32,5.0,8.0,100,0.00,,---,0.00,VWS V14.00,2013-08-30 04:11:00,
2013-08-30 00:16:00,73.1,73.1,30.01,NE,41,3.0,8.0,100,0.00,,---,0.00,VWS V14.00,2013-08-30 04:16:00,
2013-08-30 00:21:00,73.1,73.1,30.01,NNE,29,7.0,8.0,100,0.00,,---,0.00,VWS V14.00,2013-08-30 04:21:00,
2013-08-30 00:26:00,73.1,73.1,30.01,NE,37,7.0,9.0,100,0.00,,---,0.00,VWS V14.00,2013-08-30 04:26:00,
2013-08-30 00:30:00,73.1,73.1,30.01,NE,45,5.0,9.0,100,0.00,,---,0.00,VWS V14.01,2013-08-30 04:30:00,
2013-08-30 00:31:00,73.1,73.1,30.01,NE,35,4.0,7.0,100,0.00,,---,0.00,VWS V14.00,2013-08-30 04:31:00,
2013-08-30 00:36:00,73.0,73.0,30.01,NNE,29,4.0,8.0,100,0.00,,---,0.00,VWS V14.00,2013-08-30 04:36:00,
2013-08-30 00:41:00,73.0,73.0,30.00,NE,36,5.0,9.0,100,0.00,,---,0.00,VWS V14.00,2013-08-30 04:41:00,
2013-08-30 00:46:00,73.0,73.0,30.00,NE,34,10.0,11.0,100,0.00,,---,0.00,VWS V14.00,2013-08-30 04:46:00,
2013-08-30 00:51:00,73.0,73.0,30.00,NE,36,8.0,11.0,100,0.00,,---,0.00,VWS V14.00,2013-08-30 04:51:00,
2013-08-30 00:56:00,72.9,72.9,30.00,NE,42,6.0,11.0,100,0.00,,---,0.00,VWS V14.00,2013-08-30 04:56:00,
2013-08-30 01:00:00,73.0,73.0,30.00,NE,45,6.0,12.0,100,0.00,,---,0.00,VWS V14.01,2013-08-30 05:00:00,
2013-08-30 01:01:00,72.9,72.9,29.99,NNE,24,4.0,8.0,100,0.00,,---,0.00,VWS V14.00,2013-08-30 05:01:00,
2013-08-30 01:06:00,72.9,72.9,30.00,NE,47,5.0,12.0,100,0.00,,---,0.00,VWS V14.00,2013-08-30 05:06:00,
2013-08-30 01:11:00,72.9,72.9,30.00,NNE,28,7.0,12.0,100,0.00,,---,0.00,VWS V14.00,2013-08-30 05:11:00,
2013-08-30 01:16:00,72.8,72.8,29.99,NNE,22,6.0,12.0,100,0.00,,---,0.00,VWS V14.00,2013-08-30 05:16:00,
2013-08-30 01:21:00,72.8,72.8,30.00,NNE,28,4.0,12.0,100,0.00,,---,0.00,VWS V14.00,2013-08-30 05:21:00,
2013-08-30 01:26:00,72.8,72.8,30.00,North,8,7.0,12.0,100,0.00,,---,0.00,VWS V14.00,2013-08-30 05:26:00,
2013-08-30 01:30:00,72.8,72.8,30.00,NNE,22,5.0,12.0,100,0.00,,---,0.00,VWS V14.01,2013-08-30 05:30:00,
2013-08-30 01:31:00,72.8,72.8,30.00,NNE,32,2.0,8.0,100,0.00,,---,0.00,VWS V14.00,2013-08-30 05:31:00,
2013-08-30 01:36:00,72.7,72.7,29.99,NNE,29,2.0,8.0,100,0.00,,---,0.00,VWS V14.00,2013-08-30 05:36:00,
2013-08-30 01:41:00,72.7,72.7,29.99,NNE,25,3.0,9.0,100,0.00,,---,0.00,VWS V14.00,2013-08-30 05:41:00,
2013-08-30 01:46:00,72.6,72.6,29.99,NNE,25,4.0,9.0,100,0.00,,---,0.00,VWS V14.00,2013-08-30 05:46:00,
2013-08-30 01:51:00,72.6,72.6,29.99,North,11,5.0,9.0,100,0.00,,---,0.00,VWS V14.00,2013-08-30 05:51:00,
2013-08-30 01:56:00,72.6,72.6,29.99,NNE,24,7.0,9.0,100,0.00,,---,0.00,VWS V14.00,2013-08-30 05:56:00,
2013-08-30 02:00:00,72.6,72.6,29.99,NNE,22,5.0,10.0,100,0.00,,---,0.00,VWS V14.01,2013-08-30 06:00:00,
2013-08-30 02:01:00,72.6,72.6,29.99,NNE,12,7.0,9.0,100,0.00,,---,0.00,VWS V14.00,2013-08-30 06:01:00,
2013-08-30 02:06:00,72.6,72.6,29.99,NNE,25,4.0,9.0,100,0.00,,---,0.00,VWS V14.00,2013-08-30 06:06:00,
2013-08-30 02:11:00,72.5,72.5,29.99,NNE,30,7.0,9.0,100,0.00,,---,0.00,VWS V14.00,2013-08-30 06:11:00,
2013-08-30 02:16:00,72.5,72.5,29.99,NNE,30,7.0,9.0,100,0.00,,---,0.00,VWS V14.00,2013-08-30 06:16:00,
2013-08-30 02:21:00,72.4,72.4,29.99,NNE,19,7.0,10.0,100,0.00,,---,0.00,VWS V14.00,2013-08-30 06:21:00,
2013-08-30 02:26:00,72.4,72.4,29.99,NNE,33,5.0,10.0,100,0.00,,---,0.00,VWS V14.00,2013-08-30 06:26:00,
2013-08-30 02:30:00,72.5,72.5,29.99,NNE,22,7.0,10.0,100,0.00,,---,0.00,VWS V14.01,2013-08-30 06:30:00,
2013-08-30 02:31:00,72.3,72.3,29.99,NNE,22,7.0,9.0,100,0.00,,---,0.00,VWS V14.00,2013-08-30 06:31:00,
2013-08-30 02:36:00,72.3,72.3,29.99,NNE,27,6.0,9.0,100,0.00,,---,0.00,VWS V14.00,2013-08-30 06:36:00,
2013-08-30 02:41:00,72.2,72.2,29.99,NNE,26,7.0,9.0,100,0.00,,---,0.00,VWS V14.00,2013-08-30 06:41:00,
2013-08-30 02:46:00,72.2,72.2,29.99,NNE,24,6.0,9.0,100,0.00,,---,0.00,VWS V14.00,2013-08-30 06:46:00,
2013-08-30 02:51:00,72.2,72.2,29.99,NNE,22,6.0,9.0,100,0.00,,---,0.00,VWS V14.00,2013-08-30 06:51:00,
2013-08-30 02:56:00,72.1,72.1,29.99,NNE,33,3.0,9.0,100,0.00,,---,0.00,VWS V14.00,2013-08-30 06:56:00,
2013-08-30 03:00:00,72.2,72.2,29.99,NNE,22,5.0,9.0,100,0.00,,---,0.00,VWS V14.01,2013-08-30 07:00:00,
2013-08-30 03:01:00,72.1,72.1,29.99,NNE,31,6.0,8.0,100,0.00,,---,0.00,VWS V14.00,2013-08-30 07:01:00,
2013-08-30 03:06:00,72.1,72.1,29.99,NNE,21,5.0,10.0,100,0.00,,---,0.00,VWS V14.00,2013-08-30 07:06:00,
2013-08-30 03:11:00,72.1,72.1,29.99,NNE,30,8.0,10.0,100,0.00,,---,0.00,VWS V14.00,2013-08-30 07:11:00,
2013-08-30 03:16:00,72.1,72.1,29.99,NNE,32,8.0,10.0,100,0.00,,---,0.00,VWS V14.00,2013-08-30 07:16:00,
2013-08-30 03:21:00,72.1,72.1,29.99,NNE,32,7.0,11.0,100,0.00,,---,0.00,VWS V14.00,2013-08-30 07:21:00,
2013-08-30 03:26:00,72.1,72.1,29.99,NNE,33,7.0,11.0,100,0.00,,---,0.00,VWS V14.00,2013-08-30 07:26:00,
2013-08-30 03:30:00,72.1,72.1,29.99,NNE,22,8.0,12.0,100,0.00,,---,0.00,VWS V14.01,2013-08-30 07:30:00,
2013-08-30 03:31:00,72.1,72.1,29.99,NNE,27,9.0,11.0,100,0.00,,---,0.00,VWS V14.00,2013-08-30 07:31:00,
2013-08-30 03:36:00,72.1,72.1,29.99,NNE,32,8.0,13.0,100,0.00,,---,0.00,VWS V14.00,2013-08-30 07:36:00,
2013-08-30 03:41:00,72.1,72.1,29.99,NNE,30,7.0,13.0,100,0.00,,---,0.00,VWS V14.00,2013-08-30 07:41:00,
2013-08-30 03:46:00,72.1,72.1,29.99,NNE,33,8.0,13.0,100,0.00,,---,0.00,VWS V14.00,2013-08-30 07:46:00,
2013-08-30 03:51:00,72.0,72.0,29.99,NE,42,10.0,13.0,100,0.00,,---,0.00,VWS V14.00,2013-08-30 07:51:00,
2013-08-30 03:56:00,72.0,72.0,30.00,NE,39,7.0,13.0,100,0.00,,---,0.00,VWS V14.00,2013-08-30 07:56:00,
2013-08-30 04:00:00,72.1,72.1,30.00,NE,45,8.0,13.0,100,0.00,,---,0.00,VWS V14.01,2013-08-30 08:00:00,
2013-08-30 04:01:00,72.0,72.0,29.99,NNE,27,9.0,9.0,100,0.00,,---,0.00,VWS V14.00,2013-08-30 08:01:00,
2013-08-30 04:06:00,72.0,72.0,30.00,NNE,30,9.0,10.0,100,0.00,,---,0.00,VWS V14.00,2013-08-30 08:06:00,
2013-08-30 04:11:00,72.0,72.0,29.99,NNE,27,8.0,10.0,100,0.00,,---,0.00,VWS V14.00,2013-08-30 08:11:00,
2013-08-30 04:16:00,72.0,72.0,29.99,NNE,28,6.0,10.0,100,0.00,,---,0.00,VWS V14.00,2013-08-30 08:16:00,
2013-08-30 04:21:00,72.0,72.0,29.99,NNE,28,7.0,10.0,100,0.00,,---,0.00,VWS V14.00,2013-08-30 08:21:00,
2013-08-30 04:26:00,72.0,72.0,30.00,NNE,24,5.0,10.0,100,0.00,,---,0.00,VWS V14.00,2013-08-30 08:26:00,
2013-08-30 04:30:00,72.0,72.0,29.99,NNE,22,6.0,10.0,100,0.00,,---,0.00,VWS V14.01,2013-08-30 08:30:00,
2013-08-30 04:31:00,72.0,72.0,30.00,NNE,27,7.0,8.0,100,0.00,,---,0.00,VWS V14.00,2013-08-30 08:31:00,
2013-08-30 04:36:00,72.0,72.0,30.00,NNE,30,6.0,10.0,100,0.00,,---,0.00,VWS V14.00,2013-08-30 08:36:00,
2013-08-30 04:41:00,72.0,72.0,30.00,NNE,29,8.0,10.0,100,0.00,,---,0.00,VWS V14.00,2013-08-30 08:41:00,
2013-08-30 04:46:00,71.9,71.9,30.00,NNE,27,7.0,10.0,100,0.00,,---,0.00,VWS V14.00,2013-08-30 08:46:00,
2013-08-30 04:51:00,71.9,71.9,30.00,NNE,29,5.0,10.0,100,0.00,,---,0.00,VWS V14.00,2013-08-30 08:51:00,
2013-08-30 04:56:00,71.9,71.9,30.00,NNE,30,7.0,10.0,100,0.00,,---,0.00,VWS V14.00,2013-08-30 08:56:00,
2013-08-30 05:00:00,72.0,72.0,30.00,NNE,22,6.0,10.0,100,0.00,,---,0.00,VWS V14.01,2013-08-30 09:00:00,
2013-08-30 05:01:00,71.9,71.9,30.00,NE,41,6.0,8.0,100,0.00,,---,0.00,VWS V14.00,2013-08-30 09:01:00,
2013-08-30 05:06:00,71.8,71.8,30.00,NNE,30,7.0,8.0,100,0.00,,---,0.00,VWS V14.00,2013-08-30 09:06:00,
2013-08-30 05:11:00,71.9,71.9,30.00,NNE,33,3.0,8.0,100,0.00,,---,0.00,VWS V14.00,2013-08-30 09:11:00,
2013-08-30 05:16:00,71.8,71.8,30.00,NE,43,2.0,8.0,100,0.00,,---,0.00,VWS V14.00,2013-08-30 09:16:00,
2013-08-30 05:21:00,71.8,71.8,30.00,NE,34,4.0,8.0,100,0.00,,---,0.00,VWS V14.00,2013-08-30 09:21:00,
2013-08-30 05:26:00,71.8,71.8,30.01,NNE,32,4.0,8.0,100,0.00,,---,0.00,VWS V14.00,2013-08-30 09:26:00,
2013-08-30 05:30:00,71.8,71.8,30.00,NNE,22,3.0,8.0,100,0.00,,---,0.00,VWS V14.01,2013-08-30 09:30:00,
2013-08-30 05:31:00,71.8,71.8,30.01,NNE,22,2.0,3.0,100,0.00,,---,0.00,VWS V14.00,2013-08-30 09:31:00,
2013-08-30 05:36:00,71.7,71.7,30.01,NNE,14,2.0,3.0,100,0.00,,---,0.00,VWS V14.00,2013-08-30 09:36:00,
2013-08-30 05:41:00,71.7,71.7,30.01,NNE,19,0.0,3.0,100,0.00,,---,0.00,VWS V14.00,2013-08-30 09:41:00,
2013-08-30 05:46:00,71.7,71.7,30.01,NNE,19,0.0,3.0,100,0.00,,---,0.00,VWS V14.00,2013-08-30 09:46:00,
2013-08-30 05:51:00,71.7,71.7,30.01,NNE,16,2.0,3.0,100,0.00,,---,0.00,VWS V14.00,2013-08-30 09:51:00,
2013-08-30 05:56:00,71.6,71.6,30.01,NNE,16,0.0,3.0,100,0.00,,---,0.00,VWS V14.00,2013-08-30 09:56:00,
2013-08-30 06:00:00,71.7,71.7,30.02,NNE,22,0.0,3.0,100,0.00,,---,0.00,VWS V14.01,2013-08-30 10:00:00,
2013-08-30 06:01:00,71.5,71.5,30.02,NNE,16,0.0,0.0,100,0.00,,---,0.00,VWS V14.00,2013-08-30 10:01:00,
2013-08-30 06:06:00,71.5,71.5,30.02,NNE,16,1.0,2.0,100,0.00,,---,0.00,VWS V14.00,2013-08-30 10:06:00,
2013-08-30 06:11:00,71.5,71.5,30.02,NNE,17,0.0,2.0,100,0.00,,---,0.00,VWS V14.00,2013-08-30 10:11:00,
2013-08-30 06:16:00,71.6,71.6,30.02,North,0,1.0,4.0,100,0.00,,---,0.00,VWS V14.00,2013-08-30 10:16:00,
2013-08-30 06:21:00,71.6,71.6,30.02,North,4,3.0,4.0,100,0.00,,---,0.00,VWS V14.00,2013-08-30 10:21:00,
2013-08-30 06:26:00,71.5,71.5,30.02,NNE,16,5.0,6.0,100,0.00,,---,0.00,VWS V14.00,2013-08-30 10:26:00,
2013-08-30 06:30:00,71.5,71.5,30.02,North,0,2.0,6.0,100,0.00,,---,0.00,VWS V14.01,2013-08-30 10:30:00,
2013-08-30 06:31:00,71.5,71.5,30.02,NNE,24,4.0,6.0,100,0.00,,---,0.00,VWS V14.00,2013-08-30 10:31:00,
2013-08-30 06:36:00,71.5,71.5,30.02,NNE,13,5.0,6.0,100,0.00,,---,0.00,VWS V14.00,2013-08-30 10:36:00,
2013-08-30 06:41:00,71.5,71.5,30.02,North,6,3.0,7.0,100,0.00,,---,0.00,VWS V14.00,2013-08-30 10:41:00,
2013-08-30 06:46:00,71.5,71.5,30.03,North,7,4.0,7.0,100,0.00,,---,0.00,VWS V14.00,2013-08-30 10:46:00,
2013-08-30 06:51:00,71.5,71.5,30.03,North,8,5.0,7.0,100,0.00,,---,0.00,VWS V14.00,2013-08-30 10:51:00,
2013-08-30 06:56:00,71.5,71.5,30.03,North,1,6.0,8.0,100,0.00,,---,0.00,VWS V14.00,2013-08-30 10:56:00,
2013-08-30 07:00:00,71.5,71.5,30.03,North,0,4.0,8.0,100,0.00,,---,0.00,VWS V14.01,2013-08-30 11:00:00,
2013-08-30 07:01:00,71.5,71.5,30.03,NNE,15,5.0,7.0,100,0.00,,---,0.00,VWS V14.00,2013-08-30 11:01:00,
2013-08-30 07:06:00,71.5,71.5,30.03,NNE,23,4.0,7.0,100,0.00,,---,0.00,VWS V14.00,2013-08-30 11:06:00,
2013-08-30 07:11:00,71.5,71.5,30.03,North,7,5.0,7.0,100,0.00,,---,0.00,VWS V14.00,2013-08-30 11:11:00,
2013-08-30 07:16:00,71.6,71.6,30.04,NNE,21,8.0,9.0,100,0.00,,---,0.00,VWS V14.00,2013-08-30 11:16:00,
2013-08-30 07:21:00,71.6,71.6,30.04,North,7,10.0,10.0,100,0.00,,---,0.00,VWS V14.00,2013-08-30 11:21:00,
2013-08-30 07:26:00,71.7,71.7,30.03,North,8,8.0,10.0,100,0.00,,---,0.00,VWS V14.00,2013-08-30 11:26:00,
2013-08-30 07:30:00,71.6,71.6,30.03,North,0,6.0,11.0,100,0.00,,---,0.00,VWS V14.01,2013-08-30 11:30:00,
2013-08-30 07:31:00,71.7,71.7,30.03,North,11,5.0,9.0,100,0.00,,---,0.00,VWS V14.00,2013-08-30 11:31:00,
2013-08-30 07:36:00,71.7,71.7,30.03,North,11,5.0,11.0,100,0.00,,---,0.00,VWS V14.00,2013-08-30 11:36:00,
2013-08-30 07:41:00,71.7,71.7,30.03,North,8,4.0,11.0,100,0.00,,---,0.00,VWS V14.00,2013-08-30 11:41:00,
2013-08-30 07:46:00,71.8,71.8,30.04,NNE,22,5.0,11.0,100,0.00,,---,0.00,VWS V14.00,2013-08-30 11:46:00,
2013-08-30 07:51:00,71.9,71.9,30.04,NNE,13,4.0,11.0,100,0.00,,---,0.00,VWS V14.00,2013-08-30 11:51:00,
2013-08-30 07:56:00,71.9,71.9,30.04,North,6,6.0,11.0,100,0.00,,---,0.00,VWS V14.00,2013-08-30 11:56:00,
2013-08-30 08:00:00,71.8,71.8,30.04,North,0,6.0,11.0,100,0.00,,---,0.00,VWS V14.01,2013-08-30 12:00:00,
2013-08-30 08:01:00,72.0,72.0,30.04,NNE,14,6.0,7.0,100,0.00,,---,0.00,VWS V14.00,2013-08-30 12:01:00,
2013-08-30 08:06:00,72.0,72.0,30.04,North,356,10.0,11.0,100,0.00,,---,0.00,VWS V14.00,2013-08-30 12:06:00,
2013-08-30 08:11:00,72.2,72.2,30.05,NNE,19,9.0,13.0,100,0.00,,---,0.00,VWS V14.00,2013-08-30 12:11:00,
2013-08-30 08:16:00,72.3,72.3,30.05,North,9,8.0,13.0,100,0.00,,---,0.00,VWS V14.00,2013-08-30 12:16:00,
2013-08-30 08:21:00,72.4,72.4,30.04,North,9,7.0,13.0,100,0.00,,---,0.00,VWS V14.00,2013-08-30 12:21:00,
2013-08-30 08:26:00,72.5,72.5,30.05,North,8,8.0,13.0,100,0.00,,---,0.00,VWS V14.00,2013-08-30 12:26:00,
2013-08-30 08:30:00,72.3,72.3,30.05,NNE,22,8.0,13.0,100,0.00,,---,0.00,VWS V14.01,2013-08-30 12:30:00,
2013-08-30 08:31:00,72.6,72.6,30.04,NNE,27,6.0,10.0,100,0.00,,---,0.00,VWS V14.00,2013-08-30 12:31:00,
2013-08-30 08:36:00,72.7,72.7,30.04,NNE,15,7.0,12.0,100,0.00,,---,0.00,VWS V14.00,2013-08-30 12:36:00,
2013-08-30 08:41:00,72.8,72.8,30.05,NNE,19,9.0,13.0,100,0.00,,---,0.00,VWS V14.00,2013-08-30 12:41:00,
2013-08-30 08:46:00,72.9,72.9,30.05,NNE,25,17.0,17.0,100,0.00,,---,0.00,VWS V14.00,2013-08-30 12:46:00,
2013-08-30 08:51:00,73.0,73.0,30.05,North,4,8.0,17.0,100,0.00,,---,0.00,VWS V14.00,2013-08-30 12:51:00,
2013-08-30 08:56:00,73.1,73.1,30.05,NNE,13,10.0,17.0,100,0.00,,---,0.00,VWS V14.00,2013-08-30 12:56:00,
2013-08-30 09:00:00,72.9,72.9,30.05,NNE,22,9.0,17.0,100,0.00,,---,0.00,VWS V14.01,2013-08-30 13:00:00,
2013-08-30 09:01:00,73.2,73.2,30.06,North,4,8.0,14.0,100,0.00,,---,0.00,VWS V14.00,2013-08-30 13:01:00,
2013-08-30 09:06:00,73.3,73.3,30.06,North,10,8.0,14.0,100,0.00,,---,0.00,VWS V14.00,2013-08-30 13:06:00,
2013-08-30 09:11:00,73.4,73.4,30.06,NNE,23,6.0,14.0,100,0.00,,---,0.00,VWS V14.00,2013-08-30 13:11:00,
2013-08-30 09:16:00,73.5,73.5,30.06,NNE,30,12.0,14.0,100,0.00,,---,0.00,VWS V14.00,2013-08-30 13:16:00,
2013-08-30 09:21:00,73.6,73.6,30.06,NNE,23,12.0,14.0,100,0.00,,---,0.00,VWS V14.00,2013-08-30 13:21:00,
2013-08-30 09:26:00,73.7,73.7,30.06,NNE,31,11.0,14.0,100,0.00,,---,0.00,VWS V14.00,2013-08-30 13:26:00,
2013-08-30 09:30:00,73.5,73.5,30.06,NNE,22,9.0,14.0,100,0.00,,---,0.00,VWS V14.01,2013-08-30 13:30:00,
2013-08-30 09:31:00,73.9,73.9,30.06,NE,41,13.0,13.0,100,0.00,,---,0.00,VWS V14.00,2013-08-30 13:31:00,
2013-08-30 09:36:00,73.9,73.9,30.06,NE,38,7.0,14.0,100,0.00,,---,0.00,VWS V14.00,2013-08-30 13:36:00,
2013-08-30 09:41:00,74.1,74.1,30.06,NE,44,6.0,14.0,100,0.00,,---,0.00,VWS V14.00,2013-08-30 13:41:00,
2013-08-30 09:46:00,74.1,74.1,30.05,NE,35,11.0,14.0,100,0.00,,---,0.00,VWS V14.00,2013-08-30 13:46:00,
2013-08-30 09:51:00,74.1,74.1,30.06,NE,45,8.0,14.0,100,0.00,,---,0.00,VWS V14.00,2013-08-30 13:51:00,
2013-08-30 09:56:00,74.1,74.1,30.06,NE,35,9.0,14.0,100,0.00,,---,0.00,VWS V14.00,2013-08-30 13:56:00,
2013-08-30 10:00:00,74.1,74.1,30.06,NE,45,9.0,14.0,100,0.00,,---,0.00,VWS V14.01,2013-08-30 14:00:00,
2013-08-30 10:01:00,74.2,74.2,30.06,NE,51,7.0,12.0,100,0.00,,---,0.00,VWS V14.00,2013-08-30 14:01:00,
2013-08-30 10:06:00,74.3,74.3,30.06,NE,35,9.0,15.0,100,0.00,,---,0.00,VWS V14.00,2013-08-30 14:06:00,
2013-08-30 10:11:00,74.4,74.4,30.06,NE,50,10.0,15.0,100,0.00,,---,0.00,VWS V14.00,2013-08-30 14:11:00,
2013-08-30 10:16:00,74.5,74.5,30.06,NE,38,6.0,15.0,100,0.00,,---,0.00,VWS V14.00,2013-08-30 14:16:00,
2013-08-30 10:21:00,74.7,74.7,30.06,NE,37,6.0,15.0,100,0.00,,---,0.00,VWS V14.00,2013-08-30 14:21:00,
2013-08-30 10:26:00,74.8,74.8,30.06,NNE,33,8.0,15.0,100,0.00,,---,0.00,VWS V14.00,2013-08-30 14:26:00,
2013-08-30 10:30:00,74.5,74.5,30.06,NE,45,8.0,15.0,100,0.00,,---,0.00,VWS V14.01,2013-08-30 14:30:00,
2013-08-30 10:31:00,74.9,74.9,30.06,NE,55,7.0,11.0,100,0.00,,---,0.00,VWS V14.00,2013-08-30 14:31:00,
2013-08-30 10:36:00,75.1,75.1,30.06,NE,53,4.0,12.0,100,0.00,,---,0.00,VWS V14.00,2013-08-30 14:36:00,
2013-08-30 10:41:00,75.3,75.3,30.06,ENE,67,5.0,12.0,100,0.00,,---,0.00,VWS V14.00,2013-08-30 14:41:00,
2013-08-30 10:46:00,75.5,75.5,30.06,NE,51,5.0,12.0,100,0.00,,---,0.00,VWS V14.00,2013-08-30 14:46:00,
2013-08-30 10:51:00,75.6,75.6,30.06,NNE,29,11.0,13.0,100,0.00,,---,0.00,VWS V14.00,2013-08-30 14:51:00,
2013-08-30 10:56:00,75.8,75.8,30.06,ENE,58,5.0,13.0,100,0.00,,---,0.00,VWS V14.00,2013-08-30 14:56:00,
2013-08-30 11:00:00,75.4,75.4,30.06,NE,45,7.0,13.0,100,0.00,,---,0.00,VWS V14.01,2013-08-30 15:00:00,
2013-08-30 11:01:00,75.9,75.9,30.06,NNE,33,10.0,12.0,100,0.00,,---,0.00,VWS V14.00,2013-08-30 15:01:00,
2013-08-30 11:06:00,76.0,76.0,30.06,NNE,22,5.0,12.0,100,0.00,,---,0.00,VWS V14.00,2013-08-30 15:06:00,
2013-08-30 11:11:00,76.2,76.2,30.06,NNE,26,8.0,12.0,100,0.00,,---,0.00,VWS V14.00,2013-08-30 15:11:00,
2013-08-30 11:16:00,76.3,76.3,30.06,NE,46,9.0,12.0,100,0.00,,---,0.00,VWS V14.00,2013-08-30 15:16:00,
2013-08-30 11:21:00,76.4,76.1,30.05,NE,51,4.0,12.0,99,0.00,,---,0.00,VWS V14.00,2013-08-30 15:21:00,
2013-08-30 11:26:00,76.5,75.9,30.06,NE,49,5.0,12.0,98,0.00,,---,0.00,VWS V14.00,2013-08-30 15:26:00,
2013-08-30 11:30:00,76.2,75.6,30.05,NE,45,6.0,12.0,98,0.00,,---,0.00,VWS V14.01,2013-08-30 15:30:00,
2013-08-30 11:31:00,76.5,75.9,30.06,NE,53,4.0,8.0,98,0.00,,---,0.00,VWS V14.00,2013-08-30 15:31:00,
2013-08-30 11:36:00,76.7,76.4,30.05,ENE,73,4.0,8.0,99,0.00,,---,0.00,VWS V14.00,2013-08-30 15:36:00,
2013-08-30 11:41:00,76.8,76.2,30.05,ENE,62,2.0,8.0,98,0.00,,---,0.00,VWS V14.00,2013-08-30 15:41:00,
2013-08-30 11:46:00,77.1,76.5,30.05,East,94,0.0,8.0,98,0.00,,---,0.00,VWS V14.00,2013-08-30 15:46:00,
2013-08-30 11:51:00,77.3,76.4,30.05,NE,48,5.0,8.0,97,0.00,,---,0.00,VWS V14.00,2013-08-30 15:51:00,
2013-08-30 11:56:00,77.4,76.2,30.05,NE,52,5.0,8.0,96,0.00,,---,0.00,VWS V14.00,2013-08-30 15:56:00,
2013-08-30 12:00:00,77.0,75.8,30.04,ENE,68,3.0,8.0,96,0.00,,---,0.00,VWS V14.01,2013-08-30 16:00:00,
2013-08-30 12:01:00,77.5,76.0,30.04,ENE,67,1.0,8.0,95,0.00,,---,0.00,VWS V14.00,2013-08-30 16:01:00,
2013-08-30 12:06:00,77.5,76.0,30.04,ENE,72,2.0,9.0,95,0.00,,---,0.00,VWS V14.00,2013-08-30 16:06:00,
2013-08-30 12:11:00,77.7,76.5,30.05,East,91,6.0,9.0,96,0.00,,---,0.00,VWS V14.00,2013-08-30 16:11:00,
2013-08-30 12:16:00,77.9,77.3,30.04,ESE,105,0.0,9.0,98,0.00,,---,0.00,VWS V14.00,2013-08-30 16:16:00,
2013-08-30 12:21:00,78.4,78.1,30.05,ESE,103,0.0,9.0,99,0.00,,---,0.00,VWS V14.00,2013-08-30 16:21:00,
2013-08-30 12:26:00,78.7,77.2,30.04,ENE,69,5.0,9.0,95,0.00,,---,0.00,VWS V14.00,2013-08-30 16:26:00,
2013-08-30 12:30:00,78.0,76.5,30.04,ENE,68,2.0,9.0,95,0.00,,---,0.00,VWS V14.01,2013-08-30 16:30:00,
2013-08-30 12:31:00,78.8,77.2,30.04,ENE,68,4.0,5.0,95,0.00,,---,0.00,VWS V14.00,2013-08-30 16:31:00,
2013-08-30 12:36:00,79.0,78.4,30.04,ESE,104,0.0,6.0,98,0.00,,---,0.00,VWS V14.00,2013-08-30 16:36:00,
2013-08-30 12:41:00,79.4,78.5,30.03,East,89,3.0,6.0,97,0.00,,---,0.00,VWS V14.00,2013-08-30 16:41:00,
2013-08-30 12:46:00,79.7,78.8,30.03,East,101,2.0,8.0,97,0.00,,---,0.00,VWS V14.00,2013-08-30 16:46:00,
2013-08-30 12:51:00,80.1,78.9,30.03,East,85,3.0,8.0,96,0.00,,---,0.00,VWS V14.00,2013-08-30 16:51:00,
2013-08-30 12:56:00,80.4,79.2,30.03,ESE,120,8.0,8.0,96,0.00,,---,0.00,VWS V14.00,2013-08-30 16:56:00,
2013-08-30 13:00:00,79.7,78.1,30.03,East,90,3.0,8.0,95,0.00,,---,0.00,VWS V14.01,2013-08-30 17:00:00,
2013-08-30 13:01:00,80.7,79.1,30.04,ESE,106,4.0,4.0,95,0.00,,---,0.00,VWS V14.00,2013-08-30 17:01:00,
2013-08-30 13:06:00,80.9,79.3,30.04,ESE,107,3.0,9.0,95,0.00,,---,0.00,VWS V14.00,2013-08-30 17:06:00,
2013-08-30 13:11:00,81.2,79.3,30.03,ESE,114,2.0,9.0,94,0.00,,---,0.00,VWS V14.00,2013-08-30 17:11:00,
2013-08-30 13:16:00,81.3,79.4,30.03,East,89,2.0,9.0,94,0.00,,---,0.00,VWS V14.00,2013-08-30 17:16:00,
2013-08-30 13:21:00,81.4,79.5,30.03,ESE,108,2.0,9.0,94,0.00,,---,0.00,VWS V14.00,2013-08-30 17:21:00,
2013-08-30 13:26:00,81.6,79.7,30.03,East,101,3.0,9.0,94,0.00,,---,0.00,VWS V14.00,2013-08-30 17:26:00,
2013-08-30 13:30:00,81.2,79.0,30.03,ESE,112,4.0,9.0,93,0.00,,---,0.00,VWS V14.01,2013-08-30 17:30:00,
2013-08-30 13:31:00,81.7,79.2,30.03,ENE,74,5.0,7.0,92,0.00,,---,0.00,VWS V14.00,2013-08-30 17:31:00,
2013-08-30 13:36:00,81.8,79.6,30.03,ESE,110,4.0,8.0,93,0.00,,---,0.00,VWS V14.00,2013-08-30 17:36:00,
2013-08-30 13:41:00,82.0,79.8,30.03,ESE,117,0.0,8.0,93,0.00,,---,0.00,VWS V14.00,2013-08-30 17:41:00,
2013-08-30 13:46:00,82.2,79.3,30.03,ESE,120,7.0,8.0,91,0.00,,---,0.00,VWS V14.00,2013-08-30 17:46:00,
2013-08-30 13:51:00,82.3,79.1,30.02,ESE,113,3.0,8.0,90,0.00,,---,0.00,VWS V14.00,2013-08-30 17:51:00,
2013-08-30 13:56:00,82.4,79.2,30.02,ESE,118,5.0,8.0,90,0.00,,---,0.00,VWS V14.00,2013-08-30 17:56:00,
2013-08-30 14:00:00,82.1,78.9,30.02,ESE,112,3.0,8.0,90,0.00,,---,0.00,VWS V14.01,2013-08-30 18:00:00,
2013-08-30 14:01:00,82.5,78.9,30.02,SSE,149,6.0,6.0,89,0.00,,---,0.00,VWS V14.00,2013-08-30 18:01:00,
2013-08-30 14:06:00,82.6,79.0,30.02,SE,128,6.0,7.0,89,0.00,,---,0.00,VWS V14.00,2013-08-30 18:06:00,
2013-08-30 14:11:00,82.7,78.4,30.02,ESE,114,6.0,8.0,87,0.00,,---,0.00,VWS V14.00,2013-08-30 18:11:00,
2013-08-30 14:16:00,82.7,78.4,30.02,ESE,115,4.0,8.0,87,0.00,,---,0.00,VWS V14.00,2013-08-30 18:16:00,
2013-08-30 14:21:00,82.8,79.2,30.02,ESE,112,5.0,8.0,89,0.00,,---,0.00,VWS V14.00,2013-08-30 18:21:00,
2013-08-30 14:26:00,83.0,78.7,30.02,East,92,5.0,9.0,87,0.00,,---,0.00,VWS V14.00,2013-08-30 18:26:00,
2013-08-30 14:30:00,82.8,77.8,30.02,ESE,112,4.0,10.0,85,0.00,,---,0.00,VWS V14.01,2013-08-30 18:30:00,
2013-08-30 14:31:00,83.1,78.5,30.02,ESE,116,0.0,7.0,86,0.00,,---,0.00,VWS V14.00,2013-08-30 18:31:00,
2013-08-30 14:36:00,83.2,79.3,30.02,ESE,106,4.0,7.0,88,0.00,,---,0.00,VWS V14.00,2013-08-30 18:36:00,
2013-08-30 14:41:00,83.4,79.8,30.02,ESE,113,10.0,10.0,89,0.00,,---,0.00,VWS V14.00,2013-08-30 18:41:00,
2013-08-30 14:46:00,83.5,79.6,30.02,ESE,106,4.0,10.0,88,0.00,,---,0.00,VWS V14.00,2013-08-30 18:46:00,
2013-08-30 14:51:00,83.5,79.2,30.01,East,84,5.0,10.0,87,0.00,,---,0.00,VWS V14.00,2013-08-30 18:51:00,
2013-08-30 14:56:00,83.6,79.3,30.01,ESE,116,4.0,10.0,87,0.00,,---,0.00,VWS V14.00,2013-08-30 18:56:00,
2013-08-30 15:00:00,83.4,79.1,30.01,ESE,112,4.0,10.0,87,0.00,,---,0.00,VWS V14.01,2013-08-30 19:00:00,
2013-08-30 15:01:00,83.7,79.4,30.01,SE,126,4.0,7.0,87,0.00,,---,0.00,VWS V14.00,2013-08-30 19:01:00,
2013-08-30 15:06:00,83.7,79.1,30.01,East,90,7.0,9.0,86,0.00,,---,0.00,VWS V14.00,2013-08-30 19:06:00,
2013-08-30 15:11:00,83.7,78.7,30.01,ESE,102,4.0,11.0,85,0.00,,---,0.00,VWS V14.00,2013-08-30 19:11:00,
2013-08-30 15:16:00,83.6,78.6,30.00,East,96,6.0,11.0,85,0.00,,---,0.00,VWS V14.00,2013-08-30 19:16:00,
2013-08-30 15:21:00,83.6,79.0,30.00,ESE,120,4.0,11.0,86,0.00,,---,0.00,VWS V14.00,2013-08-30 19:21:00,
2013-08-30 15:26:00,83.7,79.1,30.00,ESE,118,8.0,11.0,86,0.00,,---,0.00,VWS V14.00,2013-08-30 19:26:00,
2013-08-30 15:30:00,83.7,78.7,30.00,ESE,112,5.0,11.0,85,0.00,,---,0.00,VWS V14.01,2013-08-30 19:30:00,
2013-08-30 15:31:00,83.7,79.1,30.00,SE,133,10.0,10.0,86,0.00,,---,0.00,VWS V14.00,2013-08-30 19:31:00,
2013-08-30 15:36:00,83.6,78.6,30.00,ESE,119,6.0,11.0,85,0.00,,---,0.00,VWS V14.00,2013-08-30 19:36:00,
2013-08-30 15:41:00,83.6,78.6,30.00,ESE,120,4.0,11.0,85,0.00,,---,0.00,VWS V14.00,2013-08-30 19:41:00,
2013-08-30 15:46:00,83.6,78.6,30.00,East,99,5.0,11.0,85,0.00,,---,0.00,VWS V14.00,2013-08-30 19:46:00,
2013-08-30 15:51:00,83.6,79.0,30.01,ESE,122,8.0,11.0,86,0.00,,---,0.00,VWS V14.00,2013-08-30 19:51:00,
2013-08-30 15:56:00,83.6,79.3,30.01,East,85,1.0,11.0,87,0.00,,---,0.00,VWS V14.00,2013-08-30 19:56:00,
2013-08-30 16:00:00,83.6,79.0,30.01,ESE,112,5.0,11.0,86,0.00,,---,0.00,VWS V14.01,2013-08-30 20:00:00,
2013-08-30 16:01:00,83.6,79.0,30.01,East,94,6.0,7.0,86,0.00,,---,0.00,VWS V14.00,2013-08-30 20:01:00,
2013-08-30 16:06:00,83.6,79.0,30.01,ESE,105,4.0,8.0,86,0.00,,---,0.00,VWS V14.00,2013-08-30 20:06:00,
2013-08-30 16:11:00,83.6,78.6,30.01,ESE,102,4.0,11.0,85,0.00,,---,0.00,VWS V14.00,2013-08-30 20:11:00,
2013-08-30 16:16:00,83.6,79.0,30.01,ENE,74,1.0,11.0,86,0.00,,---,0.00,VWS V14.00,2013-08-30 20:16:00,
2013-08-30 16:21:00,83.5,78.9,30.00,East,91,6.0,11.0,86,0.00,,---,0.00,VWS V14.00,2013-08-30 20:21:00,
2013-08-30 16:26:00,83.5,78.9,30.00,East,99,3.0,11.0,86,0.00,,---,0.00,VWS V14.00,2013-08-30 20:26:00,
2013-08-30 16:30:00,83.6,79.0,30.00,East,90,5.0,11.0,86,0.00,,---,0.00,VWS V14.01,2013-08-30 20:30:00,
2013-08-30 16:31:00,83.6,79.0,30.00,ESE,120,1.0,8.0,86,0.00,,---,0.00,VWS V14.00,2013-08-30 20:31:00,
2013-08-30 16:36:00,83.6,78.6,30.00,ESE,112,4.0,9.0,85,0.00,,---,0.00,VWS V14.00,2013-08-30 20:36:00,
2013-08-30 16:41:00,83.6,78.6,30.01,East,94,4.0,12.0,85,0.00,,---,0.00,VWS V14.00,2013-08-30 20:41:00,
2013-08-30 16:46:00,83.6,78.6,30.01,East,98,3.0,12.0,85,0.00,,---,0.00,VWS V14.00,2013-08-30 20:46:00,
2013-08-30 16:51:00,83.5,78.2,30.00,ENE,67,7.0,12.0,84,0.00,,---,0.00,VWS V14.00,2013-08-30 20:51:00,
2013-08-30 16:56:00,83.5,78.2,30.00,East,87,3.0,12.0,84,0.00,,---,0.00,VWS V14.00,2013-08-30 20:56:00,
2013-08-30 17:00:00,83.5,77.8,30.01,East,90,4.0,12.0,83,0.00,,---,0.00,VWS V14.01,2013-08-30 21:00:00,
2013-08-30 17:01:00,83.5,77.8,30.00,East,92,5.0,7.0,83,0.00,,---,0.00,VWS V14.00,2013-08-30 21:01:00,
2013-08-30 17:06:00,83.5,77.8,30.00,East,100,1.0,7.0,83,0.00,,---,0.00,VWS V14.00,2013-08-30 21:06:00,
2013-08-30 17:11:00,83.4,77.7,30.00,East,94,2.0,7.0,83,0.00,,---,0.00,VWS V14.00,2013-08-30 21:11:00,
2013-08-30 17:16:00,83.3,77.2,30.00,East,82,2.0,8.0,82,0.00,,---,0.00,VWS V14.00,2013-08-30 21:16:00,
2013-08-30 17:21:00,83.3,77.2,30.01,ESE,102,3.0,8.0,82,0.00,,---,0.00,VWS V14.00,2013-08-30 21:21:00,
2013-08-30 17:26:00,83.3,77.2,30.01,East,85,3.0,8.0,82,0.00,,---,0.00,VWS V14.00,2013-08-30 21:26:00,
2013-08-30 17:30:00,83.3,77.6,30.01,East,90,4.0,8.0,83,0.00,,---,0.00,VWS V14.01,2013-08-30 21:30:00,
2013-08-30 17:31:00,83.2,77.9,30.01,ESE,107,4.0,7.0,84,0.00,,---,0.00,VWS V14.00,2013-08-30 21:31:00,
2013-08-30 17:36:00,83.2,77.5,30.01,ESE,109,5.0,8.0,83,0.00,,---,0.00,VWS V14.00,2013-08-30 21:36:00,
2013-08-30 17:41:00,83.1,77.4,30.01,East,88,4.0,8.0,83,0.00,,---,0.00,VWS V14.00,2013-08-30 21:41:00,
2013-08-30 17:46:00,83.0,77.7,30.01,ESE,103,2.0,8.0,84,0.00,,---,0.00,VWS V14.00,2013-08-30 21:46:00,
2013-08-30 17:51:00,83.0,77.7,30.01,East,101,3.0,8.0,84,0.00,,---,0.00,VWS V14.00,2013-08-30 21:51:00,
2013-08-30 17:56:00,82.8,77.5,30.01,ESE,102,3.0,8.0,84,0.00,,---,0.00,VWS V14.00,2013-08-30 21:56:00,
2013-08-30 18:00:00,83.0,77.7,30.00,East,90,3.0,8.0,84,0.00,,---,0.00,VWS V14.01,2013-08-30 22:00:00,
2013-08-30 18:01:00,82.8,77.5,30.00,East,88,5.0,8.0,84,0.00,,---,0.00,VWS V14.00,2013-08-30 22:01:00,
2013-08-30 18:06:00,82.7,77.4,30.00,ENE,75,2.0,8.0,84,0.00,,---,0.00,VWS V14.00,2013-08-30 22:06:00,
2013-08-30 18:11:00,82.7,77.4,30.00,ENE,75,5.0,8.0,84,0.00,,---,0.00,VWS V14.00,2013-08-30 22:11:00,
2013-08-30 18:16:00,82.5,77.2,30.00,ENE,73,6.0,8.0,84,0.00,,---,0.00,VWS V14.00,2013-08-30 22:16:00,
2013-08-30 18:21:00,82.1,76.1,30.00,East,82,3.0,8.0,82,0.00,,---,0.00,VWS V14.00,2013-08-30 22:21:00,
2013-08-30 18:26:00,81.9,76.2,30.00,ENE,63,6.0,8.0,83,0.00,,---,0.00,VWS V14.00,2013-08-30 22:26:00,
2013-08-30 18:30:00,82.4,77.4,30.00,ENE,68,3.0,8.0,85,0.00,,---,0.00,VWS V14.01,2013-08-30 22:30:00,
2013-08-30 18:31:00,81.7,76.8,30.00,East,95,3.0,5.0,85,0.00,,---,0.00,VWS V14.00,2013-08-30 22:31:00,
2013-08-30 18:36:00,81.7,77.1,30.00,East,89,4.0,6.0,86,0.00,,---,0.00,VWS V14.00,2013-08-30 22:36:00,
2013-08-30 18:41:00,81.7,77.1,30.00,ESE,111,3.0,6.0,86,0.00,,---,0.00,VWS V14.00,2013-08-30 22:41:00,
2013-08-30 18:46:00,81.7,76.8,30.00,ESE,102,4.0,6.0,85,0.00,,---,0.00,VWS V14.00,2013-08-30 22:46:00,
2013-08-30 18:51:00,81.5,76.6,30.00,ESE,105,1.0,6.0,85,0.00,,---,0.00,VWS V14.00,2013-08-30 22:51:00,
2013-08-30 18:56:00,81.3,76.4,30.00,East,99,2.0,6.0,85,0.00,,---,0.00,VWS V14.00,2013-08-30 22:56:00,
2013-08-30 19:00:00,81.6,76.7,30.00,East,90,3.0,7.0,85,0.00,,---,0.00,VWS V14.01,2013-08-30 23:00:00,
2013-08-30 19:01:00,81.1,76.2,30.00,ESE,105,3.0,5.0,85,0.00,,---,0.00,VWS V14.00,2013-08-30 23:01:00,
2013-08-30 19:06:00,80.9,76.3,30.00,ESE,103,0.0,7.0,86,0.00,,---,0.00,VWS V14.00,2013-08-30 23:06:00,
2013-08-30 19:11:00,80.7,76.5,30.00,ESE,105,2.0,7.0,87,0.00,,---,0.00,VWS V14.00,2013-08-30 23:11:00,
2013-08-30 19:16:00,80.4,76.5,30.00,ESE,114,1.0,7.0,88,0.00,,---,0.00,VWS V14.00,2013-08-30 23:16:00,
2013-08-30 19:21:00,80.2,76.3,30.00,ESE,105,2.0,7.0,88,0.00,,---,0.00,VWS V14.00,2013-08-30 23:21:00,
2013-08-30 19:26:00,80.0,76.5,30.00,East,87,2.0,7.0,89,0.00,,---,0.00,VWS V14.00,2013-08-30 23:26:00,
2013-08-30 19:30:00,80.5,77.3,30.01,ESE,112,2.0,8.0,90,0.00,,---,0.00,VWS V14.01,2013-08-30 23:30:00,
2013-08-30 19:31:00,79.8,76.6,30.01,ESE,113,2.0,7.0,90,0.00,,---,0.00,VWS V14.00,2013-08-30 23:31:00,
2013-08-30 19:36:00,79.6,76.8,30.01,SE,128,2.0,7.0,91,0.00,,---,0.00,VWS V14.00,2013-08-30 23:36:00,
2013-08-30 19:41:00,79.4,76.6,30.00,East,85,3.0,7.0,91,0.00,,---,0.00,VWS V14.00,2013-08-30 23:41:00,
2013-08-30 19:46:00,79.3,76.8,30.00,ESE,115,0.0,7.0,92,0.00,,---,0.00,VWS V14.00,2013-08-30 23:46:00,
2013-08-30 19:51:00,79.1,76.6,30.00,ESE,108,2.0,7.0,92,0.00,,---,0.00,VWS V14.00,2013-08-30 23:51:00,
2013-08-30 19:56:00,79.0,76.8,30.00,ESE,119,5.0,7.0,93,0.00,,---,0.00,VWS V14.00,2013-08-30 23:56:00,
2013-08-30 20:00:00,79.3,77.4,30.01,ESE,112,1.0,8.0,94,0.00,,---,0.00,VWS V14.01,2013-08-31 00:00:00,
2013-08-30 20:01:00,78.8,76.9,30.01,ESE,120,0.0,5.0,94,0.00,,---,0.00,VWS V14.00,2013-08-31 00:01:00,
2013-08-30 20:06:00,78.7,76.8,30.01,ESE,116,2.0,6.0,94,0.00,,---,0.00,VWS V14.00,2013-08-31 00:06:00,
2013-08-30 20:11:00,78.6,76.7,30.00,SE,125,0.0,7.0,94,0.00,,---,0.00,VWS V14.00,2013-08-31 00:11:00,
2013-08-30 20:16:00,78.5,76.6,30.01,ESE,119,1.0,8.0,94,0.00,,---,0.00,VWS V14.00,2013-08-31 00:16:00,
2013-08-30 20:21:00,78.4,76.8,30.01,SE,137,0.0,8.0,95,0.00,,---,0.00,VWS V14.00,2013-08-31 00:21:00,
2013-08-30 20:26:00,78.3,76.8,30.01,SE,125,5.0,8.0,95,0.00,,---,0.00,VWS V14.00,2013-08-31 00:26:00,
2013-08-30 20:30:00,78.5,76.9,30.01,ESE,112,2.0,9.0,95,0.00,,---,0.00,VWS V14.01,2013-08-31 00:30:00,
2013-08-30 20:31:00,78.2,76.7,30.01,ESE,121,6.0,6.0,95,0.00,,---,0.00,VWS V14.00,2013-08-31 00:31:00,
2013-08-30 20:36:00,78.1,76.6,30.02,ESE,103,0.0,7.0,95,0.00,,---,0.00,VWS V14.00,2013-08-31 00:36:00,
2013-08-30 20:41:00,78.0,76.8,30.01,East,99,0.0,8.0,96,0.00,,---,0.00,VWS V14.00,2013-08-31 00:41:00,
2013-08-30 20:46:00,77.9,76.7,30.02,ESE,112,4.0,8.0,96,0.00,,---,0.00,VWS V14.00,2013-08-31 00:46:00,
2013-08-30 20:51:00,77.9,77.0,30.02,ESE,114,0.0,8.0,97,0.00,,---,0.00,VWS V14.00,2013-08-31 00:51:00,
2013-08-30 20:56:00,77.8,76.9,30.01,ESE,110,5.0,8.0,97,0.00,,---,0.00,VWS V14.00,2013-08-31 00:56:00,
2013-08-30 21:00:00,78.0,77.4,30.02,ESE,112,2.0,8.0,98,0.00,,---,0.00,VWS V14.01,2013-08-31 01:00:00,
2013-08-30 21:01:00,77.8,77.2,30.02,ESE,105,1.0,3.0,98,0.00,,---,0.00,VWS V14.00,2013-08-31 01:01:00,
2013-08-30 21:06:00,77.7,77.1,30.02,ESE,110,0.0,8.0,98,0.00,,---,0.00,VWS V14.00,2013-08-31 01:06:00,
2013-08-30 21:11:00,77.6,77.0,30.02,ESE,109,4.0,8.0,98,0.00,,---,0.00,VWS V14.00,2013-08-31 01:11:00,
2013-08-30 21:16:00,77.6,77.0,30.02,ESE,117,0.0,8.0,98,0.00,,---,0.00,VWS V14.00,2013-08-31 01:16:00,
2013-08-30 21:21:00,77.5,76.9,30.02,ESE,118,0.0,8.0,98,0.00,,---,0.00,VWS V14.00,2013-08-31 01:21:00,
2013-08-30 21:26:00,77.4,76.8,30.02,ESE,118,0.0,8.0,98,0.00,,---,0.00,VWS V14.00,2013-08-31 01:26:00,
2013-08-30 21:30:00,77.6,77.0,30.02,ESE,112,1.0,8.0,98,0.00,,---,0.00,VWS V14.01,2013-08-31 01:30:00,
2013-08-30 21:31:00,77.4,76.8,30.02,ESE,118,0.0,0.0,98,0.00,,---,0.00,VWS V14.00,2013-08-31 01:31:00,
2013-08-30 21:36:00,77.3,76.7,30.02,ESE,119,0.0,0.0,98,0.00,,---,0.00,VWS V14.00,2013-08-31 01:36:00,
2013-08-30 21:41:00,77.2,76.3,30.02,ESE,119,0.0,0.0,97,0.00,,---,0.00,VWS V14.00,2013-08-31 01:41:00,
2013-08-30 21:46:00,77.2,76.6,30.02,ESE,118,0.0,0.0,98,0.00,,---,0.00,VWS V14.00,2013-08-31 01:46:00,
2013-08-30 21:51:00,77.1,76.5,30.02,ESE,117,4.0,5.0,98,0.00,,---,0.00,VWS V14.00,2013-08-31 01:51:00,
2013-08-30 21:56:00,77.1,76.8,30.02,ESE,115,0.0,5.0,99,0.00,,---,0.00,VWS V14.00,2013-08-31 01:56:00,
2013-08-30 22:00:00,77.2,76.9,30.02,ESE,112,0.0,5.0,99,0.00,,---,0.00,VWS V14.01,2013-08-31 02:00:00,
2013-08-30 22:01:00,77.0,76.7,30.02,ESE,115,0.0,0.0,99,0.00,,---,0.00,VWS V14.00,2013-08-31 02:01:00,
2013-08-30 22:06:00,76.9,76.6,30.02,ESE,115,0.0,1.0,99,0.00,,---,0.00,VWS V14.00,2013-08-31 02:06:00,
2013-08-30 22:11:00,76.9,76.9,30.02,ESE,116,0.0,1.0,100,0.00,,---,0.00,VWS V14.00,2013-08-31 02:11:00,
2013-08-30 22:16:00,76.9,76.9,30.02,ESE,117,0.0,1.0,100,0.00,,---,0.00,VWS V14.00,2013-08-31 02:16:00,
2013-08-30 22:21:00,76.9,76.9,30.02,ESE,121,0.0,1.0,100,0.00,,---,0.00,VWS V14.00,2013-08-31 02:21:00,
2013-08-30 22:26:00,76.9,76.9,30.02,ESE,120,0.0,2.0,100,0.00,,---,0.00,VWS V14.00,2013-08-31 02:26:00,
2013-08-30 22:30:00,76.9,76.9,30.02,ESE,112,0.0,2.0,100,0.00,,---,0.00,VWS V14.01,2013-08-31 02:30:00,
2013-08-30 22:31:00,76.9,76.9,30.02,ESE,120,0.0,0.0,100,0.00,,---,0.00,VWS V14.00,2013-08-31 02:31:00,
2013-08-30 22:36:00,76.8,76.8,30.02,ESE,120,0.0,0.0,100,0.00,,---,0.00,VWS V14.00,2013-08-31 02:36:00,
2013-08-30 22:41:00,76.7,76.7,30.02,ESE,113,0.0,0.0,100,0.00,,---,0.00,VWS V14.00,2013-08-31 02:41:00,
2013-08-30 22:46:00,76.8,76.8,30.02,ESE,117,0.0,0.0,100,0.00,,---,0.00,VWS V14.00,2013-08-31 02:46:00,
2013-08-30 22:51:00,76.8,76.8,30.01,ESE,111,0.0,0.0,100,0.00,,---,0.00,VWS V14.00,2013-08-31 02:51:00,
2013-08-30 22:56:00,76.8,76.8,30.01,ESE,111,0.0,0.0,100,0.00,,---,0.00,VWS V14.00,2013-08-31 02:56:00,
2013-08-30 23:00:00,76.8,76.8,30.01,ESE,112,0.0,0.0,100,0.00,,---,0.00,VWS V14.01,2013-08-31 03:00:00,
2013-08-30 23:01:00,76.8,76.8,30.01,ESE,112,0.0,0.0,100,0.00,,---,0.00,VWS V14.00,2013-08-31 03:01:00,
2013-08-30 23:05:00,76.8,76.8,30.02,ESE,112,0.0,0.0,100,0.00,,---,0.00,VWS V14.00,2013-08-31 03:05:00,
2013-08-30 23:10:00,76.7,76.7,30.01,ESE,112,0.0,0.0,100,0.00,,---,0.00,VWS V14.00,2013-08-31 03:10:00,
2013-08-30 23:15:00,76.6,76.6,30.01,ESE,113,0.0,0.0,100,0.00,,---,0.00,VWS V14.00,2013-08-31 03:15:00,
2013-08-30 23:20:00,76.6,76.6,30.01,ESE,112,0.0,0.0,100,0.00,,---,0.00,VWS V14.00,2013-08-31 03:20:00,
2013-08-30 23:25:00,76.6,76.6,30.01,ESE,112,0.0,0.0,100,0.00,,---,0.00,VWS V14.00,2013-08-31 03:25:00,
2013-08-30 23:30:00,76.5,76.5,30.01,ESE,112,0.0,0.0,100,0.00,,---,0.00,VWS V14.00,2013-08-31 03:30:00,
2013-08-30 23:35:00,76.4,76.4,30.01,ESE,112,0.0,0.0,100,0.00,,---,0.00,VWS V14.00,2013-08-31 03:35:00,
2013-08-30 23:40:00,76.4,76.4,30.01,ESE,112,0.0,0.0,100,0.00,,---,0.00,VWS V14.00,2013-08-31 03:40:00,
2013-08-30 23:45:00,76.3,76.3,30.01,ESE,112,0.0,0.0,100,0.00,,---,0.00,VWS V14.00,2013-08-31 03:45:00,
2013-08-30 23:51:00,76.3,76.3,30.01,ESE,113,0.0,0.0,100,0.00,,---,0.00,VWS V14.00,2013-08-31 03:51:00,
2013-08-30 23:55:00,76.3,76.3,30.01,ESE,113,0.0,0.0,100,0.00,,---,0.00,VWS V14.00,2013-08-31 03:55:00,